createdAt,value
2023-01-23T00:01:35.410Z,30.30
2023-01-23T00:04:04.198Z,25.55
2023-01-23T00:06:31.706Z,27.73
2023-01-23T00:08:59.410Z,23.53
2023-01-23T00:11:30.371Z,27.88
2023-01-23T00:14:00.121Z,25.50
2023-01-23T00:16:31.066Z,24.90
2023-01-23T00:18:59.048Z,22.88
2023-01-23T00:21:29.047Z,26.02
2023-01-23T00:23:59.377Z,24.30
2023-01-23T00:26:35.551Z,25.77
2023-01-23T00:29:04.725Z,29.00
2023-01-23T00:31:39.017Z,24.63
2023-01-23T00:34:11.436Z,23.23
2023-01-23T00:36:42.276Z,24.25
2023-01-23T00:39:22.189Z,24.98
2023-01-23T00:41:50.434Z,23.08
2023-01-23T00:44:18.726Z,26.00
2023-01-23T00:46:46.221Z,26.60
2023-01-23T00:49:14.368Z,29.63
2023-01-23T00:51:41.659Z,26.73
2023-01-23T00:54:09.164Z,30.08
2023-01-23T00:56:36.458Z,26.35
2023-01-23T00:59:04.281Z,24.60
2023-01-23T01:01:32.884Z,22.75
2023-01-23T01:04:01.114Z,23.17
2023-01-23T01:06:30.003Z,25.75
2023-01-23T01:08:59.771Z,22.25
2023-01-23T01:11:27.755Z,23.27
2023-01-23T01:13:55.447Z,22.88
2023-01-23T01:16:24.442Z,28.02
2023-01-23T01:18:52.238Z,30.58
2023-01-23T01:21:19.632Z,33.13
2023-01-23T01:23:47.413Z,29.10
2023-01-23T01:26:14.714Z,29.15
2023-01-23T01:28:42.464Z,31.63
2023-01-23T01:31:15.071Z,30.55
2023-01-23T01:33:44.428Z,24.70
2023-01-23T01:36:19.663Z,27.38
2023-01-23T01:38:48.209Z,27.90
2023-01-23T01:41:16.493Z,26.05
2023-01-23T01:43:44.661Z,33.65
2023-01-23T01:46:23.134Z,25.67
2023-01-23T01:49:04.799Z,26.67
2023-01-23T01:51:53.278Z,27.73
2023-01-23T01:54:42.953Z,31.55
2023-01-23T01:57:39.955Z,36.35
2023-01-23T02:00:19.917Z,35.65
2023-01-23T02:02:55.494Z,32.95
2023-01-23T02:05:46.899Z,37.25
2023-01-23T02:08:26.533Z,33.33
2023-01-23T02:10:54.741Z,31.70
2023-01-23T02:13:38.806Z,26.73
2023-01-23T02:16:20.851Z,30.27
2023-01-23T02:18:53.941Z,26.90
2023-01-23T02:21:25.513Z,25.90
2023-01-23T02:24:13.012Z,29.05
2023-01-23T02:26:44.127Z,26.70
2023-01-23T02:29:13.953Z,31.30
2023-01-23T02:31:43.191Z,29.10
2023-01-23T02:34:13.895Z,24.58
2023-01-23T02:36:47.590Z,24.42
2023-01-23T02:39:18.627Z,23.17
2023-01-23T02:41:50.423Z,22.38
2023-01-23T02:44:26.812Z,24.13
2023-01-23T02:47:05.183Z,23.38
2023-01-23T02:49:32.631Z,24.30
2023-01-23T02:52:00.303Z,22.60
2023-01-23T02:54:27.606Z,21.65
2023-01-23T02:56:57.286Z,27.08
2023-01-23T02:59:42.857Z,24.80
2023-01-23T03:02:10.892Z,22.37
2023-01-23T03:04:38.275Z,21.10
2023-01-23T03:07:05.781Z,24.85
2023-01-23T03:09:33.458Z,26.00
2023-01-23T03:12:01.301Z,20.40
2023-01-23T03:14:30.314Z,25.15
2023-01-23T03:16:58.661Z,25.77
2023-01-23T03:19:27.232Z,30.80
2023-01-23T03:21:54.908Z,30.40
2023-01-23T03:24:22.690Z,30.85
2023-01-23T03:26:51.355Z,33.30
2023-01-23T03:29:44.553Z,34.65
2023-01-23T03:32:15.171Z,34.40
2023-01-23T03:34:43.896Z,34.40
2023-01-23T03:37:12.585Z,35.63
2023-01-23T03:39:58.370Z,35.55
2023-01-23T03:42:25.928Z,37.85
2023-01-23T03:44:53.305Z,37.78
2023-01-23T03:47:20.974Z,37.70
2023-01-23T03:49:48.491Z,38.35
2023-01-23T03:52:16.070Z,36.25
2023-01-23T03:54:43.423Z,38.60
2023-01-23T03:57:11.166Z,38.42
2023-01-23T03:59:38.444Z,35.88
2023-01-23T04:02:06.102Z,36.70
2023-01-23T04:04:34.859Z,42.10
2023-01-23T04:07:03.964Z,35.20
2023-01-23T04:09:31.227Z,37.72
2023-01-23T04:12:00.414Z,41.78
2023-01-23T04:14:37.314Z,35.40
2023-01-23T04:17:07.539Z,38.10
2023-01-23T04:19:35.792Z,39.80
2023-01-23T04:22:05.122Z,47.60
2023-01-23T04:24:32.502Z,45.88
2023-01-23T04:27:00.055Z,42.85
2023-01-23T04:29:27.473Z,38.88
2023-01-23T04:31:55.201Z,36.78
2023-01-23T04:34:22.529Z,36.63
2023-01-23T04:36:50.082Z,40.55
2023-01-23T04:39:17.409Z,41.63
2023-01-23T04:41:45.125Z,38.45
2023-01-23T04:44:21.621Z,41.13
2023-01-23T04:46:53.144Z,37.40
2023-01-23T04:49:22.504Z,37.63
2023-01-23T04:51:50.880Z,34.38
2023-01-23T04:54:20.005Z,42.83
2023-01-23T04:56:49.993Z,38.78
2023-01-23T04:59:17.391Z,34.97
2023-01-23T05:01:45.623Z,40.97
2023-01-23T05:04:13.027Z,40.70
2023-01-23T05:06:40.591Z,40.42
2023-01-23T05:09:07.974Z,38.90
2023-01-23T05:11:35.558Z,40.15
2023-01-23T05:14:03.188Z,43.55
2023-01-23T05:16:30.731Z,42.65
2023-01-23T05:18:58.006Z,40.20
2023-01-23T05:21:25.572Z,44.83
2023-01-23T05:23:52.859Z,45.28
2023-01-23T05:26:20.616Z,41.23
2023-01-23T05:28:47.867Z,45.33
2023-01-23T05:31:15.524Z,46.13
2023-01-23T05:33:42.802Z,39.67
2023-01-23T05:36:10.619Z,43.13
2023-01-23T05:38:37.934Z,45.97
2023-01-23T05:41:05.564Z,40.50
2023-01-23T05:43:32.849Z,40.33
2023-01-23T05:46:02.137Z,41.67
2023-01-23T05:48:29.842Z,39.08
2023-01-23T05:50:57.721Z,35.58
2023-01-23T05:53:24.957Z,38.13
2023-01-23T05:55:52.506Z,38.45
2023-01-23T05:58:19.785Z,36.37
2023-01-23T06:00:47.425Z,39.33
2023-01-23T06:03:14.681Z,39.20
2023-01-23T06:05:42.336Z,39.87
2023-01-23T06:08:09.676Z,40.85
2023-01-23T06:10:38.662Z,37.57
2023-01-23T06:13:06.631Z,42.50
2023-01-23T06:15:34.195Z,40.63
2023-01-23T06:18:01.514Z,37.03
2023-01-23T06:20:29.217Z,35.10
2023-01-23T06:22:57.143Z,44.20
2023-01-23T06:25:24.728Z,42.85
2023-01-23T06:27:54.108Z,44.50
2023-01-23T06:30:22.755Z,54.60
2023-01-23T06:32:50.229Z,58.63
2023-01-23T06:35:18.242Z,50.15
2023-01-23T06:37:45.716Z,52.63
2023-01-23T06:40:14.568Z,50.90
2023-01-23T06:42:43.267Z,51.72
2023-01-23T06:45:12.402Z,45.23
2023-01-23T06:47:39.644Z,48.00
2023-01-23T06:50:08.287Z,45.53
2023-01-23T06:52:35.723Z,46.57
2023-01-23T06:55:03.757Z,46.10
2023-01-23T06:57:31.040Z,38.70
2023-01-23T06:59:59.329Z,43.63
2023-01-23T07:02:26.700Z,44.75
2023-01-23T07:04:54.417Z,42.93
2023-01-23T07:07:21.696Z,53.07
2023-01-23T07:09:49.286Z,58.08
2023-01-23T07:12:16.688Z,60.42
2023-01-23T07:14:44.282Z,52.80
2023-01-23T07:17:11.551Z,49.03
2023-01-23T07:19:39.054Z,43.92
2023-01-23T07:22:06.386Z,42.22
2023-01-23T07:24:34.105Z,39.55
2023-01-23T07:27:01.340Z,43.53
2023-01-23T07:29:28.918Z,50.80
2023-01-23T07:31:58.287Z,49.00
2023-01-23T07:34:25.828Z,45.58
2023-01-23T07:36:53.270Z,46.03
2023-01-23T07:39:20.839Z,39.50
2023-01-23T07:41:48.261Z,42.15
2023-01-23T07:44:20.982Z,42.80
2023-01-23T07:46:49.334Z,45.55
2023-01-23T07:49:17.125Z,48.70
2023-01-23T07:51:44.566Z,41.47
2023-01-23T07:54:12.252Z,43.60
2023-01-23T07:56:39.691Z,42.58
2023-01-23T07:59:07.212Z,41.28
2023-01-23T08:01:34.566Z,41.15
2023-01-23T08:04:02.665Z,36.33
2023-01-23T08:06:30.033Z,46.13
2023-01-23T08:08:57.582Z,40.25
2023-01-23T08:11:26.634Z,40.28
2023-01-23T08:13:54.728Z,39.90
2023-01-23T08:16:22.135Z,38.13
2023-01-23T08:18:49.987Z,44.85
2023-01-23T08:21:17.590Z,41.65
2023-01-23T08:23:46.485Z,39.90
2023-01-23T08:26:17.493Z,41.65
2023-01-23T08:28:46.536Z,40.83
2023-01-23T08:31:14.520Z,42.47
2023-01-23T08:33:42.348Z,43.25
2023-01-23T08:36:13.773Z,44.05
2023-01-23T08:38:41.528Z,44.20
2023-01-23T08:41:11.982Z,45.28
2023-01-23T08:43:43.491Z,42.88
2023-01-23T08:46:11.801Z,43.85
2023-01-23T08:48:39.502Z,43.03
2023-01-23T08:51:11.071Z,44.50
2023-01-23T08:53:39.548Z,48.78
2023-01-23T08:56:19.416Z,45.13
2023-01-23T08:58:47.898Z,46.88
2023-01-23T09:01:25.932Z,44.20
2023-01-23T09:03:53.613Z,45.58
2023-01-23T09:06:23.007Z,49.55
2023-01-23T09:08:50.787Z,43.80
2023-01-23T09:11:18.913Z,51.20
2023-01-23T09:13:47.732Z,50.10
2023-01-23T09:16:15.472Z,49.17
2023-01-23T09:18:43.544Z,42.45
2023-01-23T09:21:15.905Z,43.65
2023-01-23T09:23:43.959Z,43.22
2023-01-23T09:26:15.176Z,42.55
2023-01-23T09:28:43.294Z,48.55
2023-01-23T09:31:14.319Z,48.55
2023-01-23T09:33:42.622Z,45.10
2023-01-23T09:36:10.830Z,41.65
2023-01-23T09:38:38.610Z,42.45
2023-01-23T09:41:23.906Z,38.83
2023-01-23T09:44:07.708Z,39.97
2023-01-23T09:46:52.097Z,38.45
2023-01-23T09:49:43.162Z,44.17
2023-01-23T09:52:23.674Z,39.90
2023-01-23T09:55:02.873Z,42.35
2023-01-23T09:57:54.910Z,41.75
2023-01-23T10:00:33.737Z,41.65
2023-01-23T10:03:11.552Z,44.92
2023-01-23T10:05:55.876Z,44.25
2023-01-23T10:09:14.521Z,37.95
2023-01-23T10:12:14.477Z,38.47
2023-01-23T10:15:05.968Z,40.03
2023-01-23T10:18:00.229Z,44.60
2023-01-23T10:20:33.304Z,42.00
2023-01-23T10:23:24.199Z,47.88
2023-01-23T10:25:52.683Z,44.75
2023-01-23T10:28:39.521Z,47.13
2023-01-23T10:31:52.001Z,42.05
2023-01-23T10:34:38.261Z,42.70
2023-01-23T10:37:51.183Z,42.88
2023-01-23T10:40:41.566Z,42.78
2023-01-23T10:43:17.793Z,43.10
2023-01-23T10:45:49.526Z,48.17
2023-01-23T10:48:33.635Z,43.38
2023-01-23T10:51:01.308Z,40.10
2023-01-23T10:53:28.768Z,49.63
2023-01-23T10:56:00.866Z,46.15
2023-01-23T10:58:38.276Z,48.47
2023-01-23T11:01:26.744Z,45.05
2023-01-23T11:03:54.323Z,45.00
2023-01-23T11:06:26.094Z,40.90
2023-01-23T11:09:01.397Z,36.95
2023-01-23T11:11:32.541Z,38.88
2023-01-23T11:14:16.904Z,45.53
2023-01-23T11:16:44.803Z,39.03
2023-01-23T11:19:22.834Z,36.17
2023-01-23T11:22:04.242Z,36.22
2023-01-23T11:24:41.360Z,35.78
2023-01-23T11:27:15.790Z,40.92
2023-01-23T11:30:09.211Z,43.75
2023-01-23T11:33:06.677Z,48.72
2023-01-23T11:36:18.105Z,69.32
2023-01-23T11:39:06.039Z,46.90
2023-01-23T11:41:36.447Z,50.45
2023-01-23T11:44:18.393Z,41.90
2023-01-23T11:47:14.083Z,50.00
2023-01-23T11:50:06.311Z,49.22
2023-01-23T11:52:56.919Z,46.75
2023-01-23T11:55:58.734Z,53.13
2023-01-23T11:59:00.065Z,48.20
2023-01-23T12:01:49.237Z,50.55
2023-01-23T12:04:28.583Z,46.67
2023-01-23T12:07:11.319Z,46.25
2023-01-23T12:09:44.927Z,36.00
2023-01-23T12:13:12.278Z,40.70
2023-01-23T12:16:00.606Z,39.30
2023-01-23T12:18:43.073Z,36.05
2023-01-23T12:21:34.119Z,41.00
2023-01-23T12:24:32.797Z,40.75
2023-01-23T12:27:29.733Z,41.25
2023-01-23T12:30:37.894Z,41.95
2023-01-23T12:33:30.054Z,35.85
2023-01-23T12:36:48.523Z,35.80
2023-01-23T12:40:01.583Z,33.65
2023-01-23T12:43:09.156Z,31.02
2023-01-23T12:45:46.740Z,32.17
2023-01-23T12:48:29.861Z,32.22
2023-01-23T12:51:08.005Z,34.35
2023-01-23T12:53:42.101Z,32.72
2023-01-23T12:56:27.973Z,30.55
2023-01-23T12:59:47.191Z,30.67
2023-01-23T13:03:14.885Z,33.20
2023-01-23T13:06:00.592Z,32.78
2023-01-23T13:09:05.473Z,35.08
2023-01-23T13:11:42.925Z,31.95
2023-01-23T13:14:22.791Z,34.47
2023-01-23T13:16:53.703Z,38.03
2023-01-23T13:19:45.168Z,34.58
2023-01-23T13:22:27.772Z,37.05
2023-01-23T13:25:15.130Z,36.03
2023-01-23T13:27:58.057Z,40.22
2023-01-23T13:30:26.214Z,40.95
2023-01-23T13:33:30.499Z,48.00
2023-01-23T13:36:12.942Z,51.95
2023-01-23T13:38:42.295Z,39.80
2023-01-23T13:41:14.539Z,43.25
2023-01-23T13:44:05.325Z,38.33
2023-01-23T14:22:48.260Z,53.45
2023-01-23T14:25:19.083Z,50.88
2023-01-23T14:27:53.753Z,44.00
2023-01-23T14:30:30.358Z,43.50
2023-01-23T14:33:01.387Z,44.00
2023-01-23T14:35:35.901Z,43.90
2023-01-23T14:38:08.080Z,43.75
2023-01-23T14:40:49.479Z,45.90
2023-01-23T14:43:29.682Z,44.05
2023-01-23T14:46:22.220Z,43.15
2023-01-23T14:48:56.385Z,43.63
2023-01-23T14:51:27.436Z,39.15
2023-01-23T14:54:02.994Z,38.85
2023-01-23T14:56:39.831Z,37.47
2023-01-23T14:59:37.190Z,43.58
2023-01-23T15:02:33.679Z,43.42
2023-01-23T15:05:18.406Z,45.63
2023-01-23T15:07:56.233Z,42.17
2023-01-23T15:10:34.758Z,42.88
2023-01-23T15:13:10.195Z,47.85
2023-01-23T15:15:38.332Z,43.20
2023-01-23T15:18:22.737Z,41.42
2023-01-23T15:21:03.187Z,47.67
2023-01-23T15:23:58.668Z,44.45
2023-01-23T15:26:39.904Z,39.95
2023-01-23T15:29:10.502Z,48.58
2023-01-23T15:31:40.638Z,51.60
2023-01-23T15:34:16.932Z,50.58
2023-01-23T15:36:52.226Z,55.78
2023-01-23T15:39:24.784Z,51.95
2023-01-23T15:42:02.327Z,50.85
2023-01-23T15:44:33.031Z,48.78
2023-01-23T15:47:01.328Z,53.17
2023-01-23T15:49:30.772Z,45.53
2023-01-23T15:52:02.494Z,49.97
2023-01-23T15:54:36.956Z,50.17
2023-01-23T15:57:08.709Z,60.45
2023-01-23T15:59:37.454Z,57.10
2023-01-23T16:02:12.835Z,49.42
2023-01-23T16:04:46.723Z,55.85
2023-01-23T16:07:31.504Z,51.67
2023-01-23T16:09:59.191Z,54.88
2023-01-23T16:12:30.976Z,60.03
2023-01-23T16:14:58.728Z,51.13
2023-01-23T16:17:26.266Z,57.08
2023-01-23T16:19:54.610Z,54.05
2023-01-23T16:22:29.425Z,58.78
2023-01-23T16:24:58.766Z,51.08
2023-01-23T16:27:27.787Z,59.95
2023-01-23T16:29:56.197Z,54.75
2023-01-23T16:32:23.729Z,62.28
2023-01-23T16:34:51.445Z,62.55
2023-01-23T16:37:19.603Z,57.20
2023-01-23T16:39:47.959Z,56.42
2023-01-23T16:42:22.782Z,61.50
2023-01-23T16:44:51.186Z,56.65
2023-01-23T16:47:18.671Z,62.95
2023-01-23T16:49:52.668Z,60.33
2023-01-23T16:52:24.378Z,63.87
2023-01-23T16:54:54.774Z,64.75
2023-01-23T16:57:22.954Z,60.45
2023-01-23T16:59:52.810Z,64.63
2023-01-23T17:02:31.883Z,58.10
2023-01-23T17:04:59.517Z,54.00
2023-01-23T17:07:26.829Z,55.90
2023-01-23T17:09:54.408Z,53.40
2023-01-23T17:12:29.296Z,53.53
2023-01-23T17:14:58.168Z,59.13
2023-01-23T17:17:36.461Z,55.13
2023-01-23T17:20:05.671Z,57.60
2023-01-23T17:22:40.751Z,51.90
2023-01-23T17:25:20.819Z,52.10
2023-01-23T17:28:06.885Z,50.53
2023-01-23T17:30:37.905Z,50.38
2023-01-23T17:33:05.293Z,53.50
2023-01-23T17:35:37.576Z,50.72
2023-01-23T17:38:05.115Z,47.80
2023-01-23T17:40:32.915Z,52.78
2023-01-23T17:43:00.426Z,49.00
2023-01-23T17:45:28.413Z,51.28
2023-01-23T17:47:56.247Z,49.67
2023-01-23T17:50:26.622Z,47.50
2023-01-23T17:52:54.802Z,48.53
2023-01-23T17:55:28.345Z,48.03
2023-01-23T17:57:55.758Z,52.30
2023-01-23T18:00:23.771Z,55.17
2023-01-23T18:02:59.134Z,51.75
2023-01-23T18:05:27.443Z,55.60
2023-01-23T18:07:54.828Z,52.15
2023-01-23T18:10:25.640Z,51.35
2023-01-23T18:13:10.796Z,50.67
2023-01-23T18:16:02.021Z,56.58
2023-01-23T18:18:39.161Z,53.85
2023-01-23T18:21:14.984Z,63.97
2023-01-23T18:23:42.806Z,54.03
2023-01-23T18:26:31.067Z,54.92
2023-01-23T18:29:13.289Z,58.33
2023-01-23T18:31:52.659Z,61.40
2023-01-23T18:35:01.959Z,65.07
2023-01-23T18:38:11.958Z,58.08
2023-01-23T18:41:12.832Z,62.10
2023-01-23T18:44:01.727Z,53.28
2023-01-23T18:46:30.694Z,59.70
2023-01-23T18:48:58.980Z,57.90
2023-01-23T18:51:54.280Z,56.50
2023-01-23T18:54:57.876Z,52.97
2023-01-23T18:57:46.197Z,58.72
2023-01-23T19:00:47.752Z,51.47
2023-01-23T19:03:18.329Z,57.83
2023-01-23T19:05:46.834Z,55.30
2023-01-23T19:08:32.624Z,55.90
2023-01-23T19:11:30.847Z,51.15
2023-01-23T19:14:08.189Z,53.45
2023-01-23T19:16:47.960Z,49.30
2023-01-23T19:19:56.927Z,62.92
2023-01-23T19:22:26.595Z,49.80
2023-01-23T19:24:54.206Z,55.78
2023-01-23T19:27:23.781Z,52.22
2023-01-23T19:29:51.244Z,56.95
2023-01-23T19:32:19.238Z,57.38
2023-01-23T19:34:46.536Z,48.42
2023-01-23T19:37:14.845Z,48.70
2023-01-23T19:39:42.389Z,50.97
2023-01-23T19:42:14.921Z,50.70
2023-01-23T19:44:42.219Z,55.22
2023-01-23T19:47:10.203Z,53.45
2023-01-23T19:49:37.506Z,54.72
2023-01-23T19:52:05.263Z,55.08
2023-01-23T19:54:32.577Z,51.90
2023-01-23T19:57:00.222Z,58.33
2023-01-23T19:59:27.788Z,65.50
2023-01-23T20:01:55.721Z,83.93
2023-01-23T20:04:24.246Z,93.72
2023-01-23T20:06:52.531Z,85.72
2023-01-23T20:09:20.858Z,81.22
2023-01-23T20:11:49.318Z,74.05
2023-01-23T20:14:16.821Z,70.63
2023-01-23T20:16:44.692Z,64.13
2023-01-23T20:19:15.047Z,64.97
2023-01-23T20:21:43.449Z,60.85
2023-01-23T20:24:11.225Z,64.47
2023-01-23T20:26:40.001Z,66.90
2023-01-23T20:29:08.759Z,60.45
2023-01-23T20:31:36.602Z,63.75
2023-01-23T20:34:04.079Z,65.07
2023-01-23T20:36:31.669Z,71.68
2023-01-23T20:38:58.991Z,72.30
2023-01-23T20:41:26.759Z,71.82
2023-01-23T20:43:54.110Z,71.90
2023-01-23T20:46:21.870Z,67.05
2023-01-23T20:48:49.314Z,65.32
2023-01-23T20:51:17.878Z,65.50
2023-01-23T20:53:45.863Z,67.88
2023-01-23T20:56:17.042Z,67.55
2023-01-23T20:59:07.306Z,77.80
2023-01-23T21:01:57.959Z,76.65
2023-01-23T21:04:30.177Z,81.53
2023-01-23T21:06:58.624Z,74.38
2023-01-23T21:09:27.054Z,85.03
2023-01-23T21:11:55.646Z,78.53
2023-01-23T21:14:24.354Z,80.28
2023-01-23T21:16:52.013Z,77.28
2023-01-23T21:19:19.627Z,77.22
2023-01-23T21:21:47.924Z,78.32
2023-01-23T21:24:15.665Z,72.35
2023-01-23T21:26:43.896Z,77.50
2023-01-23T21:29:11.352Z,75.18
2023-01-23T21:31:39.696Z,68.13
2023-01-23T21:34:11.441Z,80.90
2023-01-23T21:36:42.016Z,72.85
2023-01-23T21:39:13.983Z,73.78
2023-01-23T21:41:41.966Z,70.32
2023-01-23T21:44:11.236Z,67.43
2023-01-23T21:46:38.974Z,66.90
2023-01-23T21:49:06.409Z,67.07
2023-01-23T21:51:34.035Z,66.90
2023-01-23T21:54:01.378Z,69.83
2023-01-23T21:56:29.039Z,62.70
2023-01-23T21:58:56.419Z,77.53
2023-01-23T22:01:46.742Z,68.70
2023-01-23T22:04:19.565Z,70.20
2023-01-23T22:06:47.242Z,65.65
2023-01-23T22:09:18.072Z,67.00
2023-01-23T22:11:48.448Z,63.17
2023-01-23T22:14:18.394Z,67.13
2023-01-23T22:16:49.164Z,59.72
2023-01-23T22:19:24.642Z,66.03
2023-01-23T22:21:55.150Z,64.78
2023-01-23T22:24:22.723Z,70.00
2023-01-23T22:26:50.505Z,67.15
2023-01-23T22:29:18.268Z,67.43
2023-01-23T22:31:46.028Z,70.03
2023-01-23T22:34:13.747Z,71.30
2023-01-23T22:36:41.404Z,68.95
2023-01-23T22:39:08.769Z,65.72
2023-01-23T22:41:36.363Z,61.95
2023-01-23T22:44:03.667Z,61.85
2023-01-23T22:46:32.623Z,62.72
2023-01-23T22:49:00.064Z,66.40
2023-01-23T22:51:28.940Z,65.18
2023-01-23T22:53:58.377Z,70.43
2023-01-23T22:56:28.018Z,68.78
2023-01-23T22:58:57.110Z,66.22
2023-01-23T23:01:27.326Z,73.35
2023-01-23T23:03:59.357Z,71.78
2023-01-23T23:06:28.202Z,69.95
2023-01-23T23:08:55.897Z,76.70
2023-01-23T23:11:28.467Z,74.70
2023-01-23T23:13:58.255Z,72.32
2023-01-23T23:16:31.105Z,68.63
2023-01-23T23:19:02.266Z,75.85
2023-01-23T23:21:36.203Z,75.45
2023-01-23T23:24:07.154Z,77.50
2023-01-23T23:26:35.175Z,84.00
2023-01-23T23:29:03.106Z,74.95
2023-01-23T23:31:31.739Z,72.20
2023-01-23T23:33:59.110Z,69.03
2023-01-23T23:36:27.216Z,73.25
2023-01-23T23:38:54.713Z,61.88
2023-01-23T23:41:22.298Z,69.95
2023-01-23T23:43:49.621Z,70.07
2023-01-23T23:46:17.772Z,63.30
2023-01-23T23:48:46.326Z,62.85
2023-01-23T23:51:18.793Z,66.07
2023-01-23T23:53:47.060Z,65.07
2023-01-23T23:56:26.493Z,71.10
2023-01-23T23:58:55.662Z,61.00
